sensor_id;sensor_type;location;lat;lon;timestamp;P1;durP1;ratioP1;P2;durP2;ratioP2
19191;SDS011;9728;48.194;16.346;2023-03-23T00:02:03;5.43;;;3.42;;
19191;SDS011;9728;48.194;16.346;2023-03-23T00:07:06;5.72;;;3.60;;
19191;SDS011;9728;48.194;16.346;2023-03-23T00:12:08;4.93;;;3.42;;
19191;SDS011;9728;48.194;16.346;2023-03-23T00:17:13;6.07;;;3.95;;
19191;SDS011;9728;48.194;16.346;2023-03-23T00:22:16;5.65;;;3.85;;
19191;SDS011;9728;48.194;16.346;2023-03-23T00:27:21;5.65;;;3.53;;
19191;SDS011;9728;48.194;16.346;2023-03-23T00:32:26;5.13;;;3.60;;
19191;SDS011;9728;48.194;16.346;2023-03-23T00:37:28;7.57;;;3.90;;
19191;SDS011;9728;48.194;16.346;2023-03-23T00:42:31;7.53;;;3.75;;
19191;SDS011;9728;48.194;16.346;2023-03-23T00:47:40;7.00;;;4.05;;
19191;SDS011;9728;48.194;16.346;2023-03-23T00:52:47;5.15;;;3.28;;
19191;SDS011;9728;48.194;16.346;2023-03-23T00:57:52;5.57;;;4.00;;
19191;SDS011;9728;48.194;16.346;2023-03-23T01:02:56;5.93;;;3.47;;
19191;SDS011;9728;48.194;16.346;2023-03-23T01:07:58;7.30;;;4.10;;
19191;SDS011;9728;48.194;16.346;2023-03-23T01:13:04;7.80;;;3.97;;
19191;SDS011;9728;48.194;16.346;2023-03-23T01:18:08;6.15;;;3.60;;
19191;SDS011;9728;48.194;16.346;2023-03-23T01:23:11;5.38;;;3.28;;
19191;SDS011;9728;48.194;16.346;2023-03-23T01:28:13;4.45;;;3.25;;
19191;SDS011;9728;48.194;16.346;2023-03-23T01:33:17;4.65;;;2.80;;
19191;SDS011;9728;48.194;16.346;2023-03-23T01:38:20;3.47;;;2.63;;
19191;SDS011;9728;48.194;16.346;2023-03-23T01:43:22;5.55;;;3.10;;
19191;SDS011;9728;48.194;16.346;2023-03-23T01:48:27;4.60;;;2.65;;
19191;SDS011;9728;48.194;16.346;2023-03-23T01:53:32;4.13;;;2.78;;
19191;SDS011;9728;48.194;16.346;2023-03-23T01:58:39;3.55;;;2.75;;
19191;SDS011;9728;48.194;16.346;2023-03-23T02:03:44;2.85;;;2.17;;
19191;SDS011;9728;48.194;16.346;2023-03-23T02:08:48;3.72;;;2.45;;
19191;SDS011;9728;48.194;16.346;2023-03-23T02:13:52;3.33;;;2.42;;
19191;SDS011;9728;48.194;16.346;2023-03-23T02:19:03;3.67;;;2.33;;
19191;SDS011;9728;48.194;16.346;2023-03-23T02:24:30;2.65;;;2.08;;
19191;SDS011;9728;48.194;16.346;2023-03-23T02:35:18;3.03;;;2.30;;
19191;SDS011;9728;48.194;16.346;2023-03-23T02:40:24;2.58;;;2.17;;
19191;SDS011;9728;48.194;16.346;2023-03-23T02:45:32;4.65;;;2.60;;
19191;SDS011;9728;48.194;16.346;2023-03-23T02:50:38;3.63;;;2.58;;
19191;SDS011;9728;48.194;16.346;2023-03-23T02:55:44;2.30;;;2.03;;
19191;SDS011;9728;48.194;16.346;2023-03-23T03:00:51;2.35;;;2.15;;
19191;SDS011;9728;48.194;16.346;2023-03-23T03:06:01;2.53;;;2.10;;
19191;SDS011;9728;48.194;16.346;2023-03-23T03:11:11;4.13;;;2.35;;
19191;SDS011;9728;48.194;16.346;2023-03-23T03:16:18;2.83;;;2.10;;
19191;SDS011;9728;48.194;16.346;2023-03-23T03:21:28;2.42;;;2.22;;
19191;SDS011;9728;48.194;16.346;2023-03-23T03:26:34;3.13;;;2.25;;
19191;SDS011;9728;48.194;16.346;2023-03-23T03:31:57;3.45;;;2.33;;
19191;SDS011;9728;48.194;16.346;2023-03-23T03:37:03;2.55;;;2.08;;
19191;SDS011;9728;48.194;16.346;2023-03-23T03:42:08;2.70;;;2.22;;
19191;SDS011;9728;48.194;16.346;2023-03-23T03:47:10;2.40;;;2.20;;
19191;SDS011;9728;48.194;16.346;2023-03-23T03:52:14;3.47;;;2.10;;
19191;SDS011;9728;48.194;16.346;2023-03-23T03:57:18;2.72;;;2.35;;
19191;SDS011;9728;48.194;16.346;2023-03-23T04:02:39;2.85;;;2.33;;
19191;SDS011;9728;48.194;16.346;2023-03-23T04:07:44;2.10;;;1.80;;
19191;SDS011;9728;48.194;16.346;2023-03-23T04:12:53;3.40;;;2.08;;
19191;SDS011;9728;48.194;16.346;2023-03-23T04:18:14;2.50;;;2.08;;
19191;SDS011;9728;48.194;16.346;2023-03-23T04:23:21;2.20;;;2.00;;
19191;SDS011;9728;48.194;16.346;2023-03-23T04:28:25;2.80;;;2.10;;
19191;SDS011;9728;48.194;16.346;2023-03-23T04:33:56;3.00;;;1.88;;
19191;SDS011;9728;48.194;16.346;2023-03-23T04:39:05;2.90;;;1.92;;
19191;SDS011;9728;48.194;16.346;2023-03-23T04:44:11;3.80;;;1.90;;
19191;SDS011;9728;48.194;16.346;2023-03-23T04:49:21;2.85;;;1.90;;
19191;SDS011;9728;48.194;16.346;2023-03-23T04:54:32;2.75;;;2.00;;
19191;SDS011;9728;48.194;16.346;2023-03-23T04:59:35;2.92;;;1.90;;
19191;SDS011;9728;48.194;16.346;2023-03-23T05:04:43;2.22;;;1.90;;
19191;SDS011;9728;48.194;16.346;2023-03-23T05:09:51;2.00;;;1.80;;
19191;SDS011;9728;48.194;16.346;2023-03-23T05:14:57;3.20;;;2.30;;
19191;SDS011;9728;48.194;16.346;2023-03-23T05:20:02;3.10;;;2.25;;
19191;SDS011;9728;48.194;16.346;2023-03-23T05:25:21;2.03;;;1.75;;
19191;SDS011;9728;48.194;16.346;2023-03-23T05:30:31;3.05;;;2.00;;
19191;SDS011;9728;48.194;16.346;2023-03-23T05:35:34;2.70;;;2.35;;
19191;SDS011;9728;48.194;16.346;2023-03-23T05:40:39;2.85;;;2.33;;
19191;SDS011;9728;48.194;16.346;2023-03-23T05:46:00;3.05;;;2.25;;
19191;SDS011;9728;48.194;16.346;2023-03-23T05:51:04;2.53;;;1.90;;
19191;SDS011;9728;48.194;16.346;2023-03-23T05:56:13;3.10;;;1.98;;
19191;SDS011;9728;48.194;16.346;2023-03-23T06:01:35;3.47;;;2.25;;
19191;SDS011;9728;48.194;16.346;2023-03-23T06:06:37;3.33;;;2.45;;
19191;SDS011;9728;48.194;16.346;2023-03-23T06:11:45;4.07;;;2.33;;
19191;SDS011;9728;48.194;16.346;2023-03-23T06:17:03;2.38;;;2.17;;
19191;SDS011;9728;48.194;16.346;2023-03-23T06:22:06;3.78;;;2.42;;
19191;SDS011;9728;48.194;16.346;2023-03-23T06:27:36;3.08;;;2.58;;
19191;SDS011;9728;48.194;16.346;2023-03-23T06:32:38;2.53;;;2.30;;
19191;SDS011;9728;48.194;16.346;2023-03-23T06:37:45;4.00;;;2.88;;
19191;SDS011;9728;48.194;16.346;2023-03-23T06:42:54;5.60;;;2.75;;
19191;SDS011;9728;48.194;16.346;2023-03-23T06:47:58;2.97;;;2.67;;
19191;SDS011;9728;48.194;16.346;2023-03-23T06:53:03;5.13;;;2.78;;
19191;SDS011;9728;48.194;16.346;2023-03-23T06:58:08;3.67;;;2.92;;
19191;SDS011;9728;48.194;16.346;2023-03-23T07:03:11;4.07;;;2.60;;
19191;SDS011;9728;48.194;16.346;2023-03-23T07:08:13;4.38;;;2.83;;
19191;SDS011;9728;48.194;16.346;2023-03-23T07:13:23;5.38;;;3.08;;
19191;SDS011;9728;48.194;16.346;2023-03-23T07:18:29;5.53;;;3.13;;
19191;SDS011;9728;48.194;16.346;2023-03-23T07:23:34;4.57;;;3.17;;
19191;SDS011;9728;48.194;16.346;2023-03-23T07:28:47;7.80;;;3.50;;
19191;SDS011;9728;48.194;16.346;2023-03-23T07:34:05;4.75;;;3.20;;
19191;SDS011;9728;48.194;16.346;2023-03-23T07:39:27;6.30;;;3.20;;
19191;SDS011;9728;48.194;16.346;2023-03-23T07:44:34;5.50;;;2.92;;
19191;SDS011;9728;48.194;16.346;2023-03-23T07:49:42;4.10;;;3.25;;
19191;SDS011;9728;48.194;16.346;2023-03-23T07:54:53;5.03;;;3.88;;
19191;SDS011;9728;48.194;16.346;2023-03-23T08:00:12;5.05;;;3.60;;
19191;SDS011;9728;48.194;16.346;2023-03-23T08:05:20;6.47;;;3.80;;
19191;SDS011;9728;48.194;16.346;2023-03-23T08:10:42;3.97;;;3.30;;
19191;SDS011;9728;48.194;16.346;2023-03-23T08:16:09;5.22;;;3.75;;
19191;SDS011;9728;48.194;16.346;2023-03-23T08:21:34;6.55;;;3.97;;
19191;SDS011;9728;48.194;16.346;2023-03-23T08:26:52;7.10;;;3.97;;
19191;SDS011;9728;48.194;16.346;2023-03-23T08:32:22;6.75;;;3.85;;
19191;SDS011;9728;48.194;16.346;2023-03-23T08:37:27;5.00;;;4.13;;
19191;SDS011;9728;48.194;16.346;2023-03-23T08:42:56;5.80;;;4.15;;
19191;SDS011;9728;48.194;16.346;2023-03-23T08:48:18;6.55;;;4.30;;
19191;SDS011;9728;48.194;16.346;2023-03-23T08:53:37;5.32;;;3.97;;
19191;SDS011;9728;48.194;16.346;2023-03-23T08:59:00;6.43;;;3.70;;
19191;SDS011;9728;48.194;16.346;2023-03-23T09:04:12;7.13;;;4.55;;
19191;SDS011;9728;48.194;16.346;2023-03-23T09:09:33;6.80;;;3.80;;
19191;SDS011;9728;48.194;16.346;2023-03-23T09:14:35;6.93;;;4.07;;
19191;SDS011;9728;48.194;16.346;2023-03-23T09:19:39;6.50;;;4.88;;
19191;SDS011;9728;48.194;16.346;2023-03-23T09:24:41;6.70;;;4.63;;
19191;SDS011;9728;48.194;16.346;2023-03-23T09:29:43;5.13;;;3.97;;
19191;SDS011;9728;48.194;16.346;2023-03-23T09:34:50;6.75;;;3.78;;
19191;SDS011;9728;48.194;16.346;2023-03-23T09:39:55;5.78;;;4.10;;
19191;SDS011;9728;48.194;16.346;2023-03-23T09:45:02;5.47;;;4.32;;
19191;SDS011;9728;48.194;16.346;2023-03-23T09:50:14;5.88;;;4.65;;
19191;SDS011;9728;48.194;16.346;2023-03-23T09:55:19;5.43;;;4.22;;
19191;SDS011;9728;48.194;16.346;2023-03-23T10:00:24;6.03;;;4.15;;
19191;SDS011;9728;48.194;16.346;2023-03-23T10:05:34;5.50;;;3.70;;
19191;SDS011;9728;48.194;16.346;2023-03-23T10:10:42;5.57;;;4.00;;
19191;SDS011;9728;48.194;16.346;2023-03-23T10:15:55;4.32;;;3.80;;
19191;SDS011;9728;48.194;16.346;2023-03-23T10:20:59;6.97;;;4.35;;
19191;SDS011;9728;48.194;16.346;2023-03-23T10:26:05;7.68;;;3.65;;
19191;SDS011;9728;48.194;16.346;2023-03-23T10:31:13;5.28;;;4.25;;
19191;SDS011;9728;48.194;16.346;2023-03-23T10:36:21;6.80;;;4.25;;
19191;SDS011;9728;48.194;16.346;2023-03-23T10:41:26;5.43;;;3.97;;
19191;SDS011;9728;48.194;16.346;2023-03-23T10:46:31;6.57;;;3.97;;
19191;SDS011;9728;48.194;16.346;2023-03-23T10:51:41;5.25;;;3.67;;
19191;SDS011;9728;48.194;16.346;2023-03-23T10:56:46;6.88;;;4.18;;
19191;SDS011;9728;48.194;16.346;2023-03-23T11:01:49;5.32;;;4.00;;
19191;SDS011;9728;48.194;16.346;2023-03-23T11:06:57;5.00;;;3.90;;
19191;SDS011;9728;48.194;16.346;2023-03-23T11:12:02;6.63;;;4.15;;
19191;SDS011;9728;48.194;16.346;2023-03-23T11:17:18;3.90;;;3.45;;
19191;SDS011;9728;48.194;16.346;2023-03-23T11:22:25;4.63;;;4.13;;
19191;SDS011;9728;48.194;16.346;2023-03-23T11:27:28;4.55;;;3.70;;
19191;SDS011;9728;48.194;16.346;2023-03-23T11:32:31;3.95;;;2.25;;
19191;SDS011;9728;48.194;16.346;2023-03-23T11:37:36;3.42;;;2.72;;
19191;SDS011;9728;48.194;16.346;2023-03-23T11:42:43;2.60;;;2.35;;
19191;SDS011;9728;48.194;16.346;2023-03-23T11:47:50;3.70;;;2.17;;
19191;SDS011;9728;48.194;16.346;2023-03-23T11:53:12;3.05;;;2.35;;
19191;SDS011;9728;48.194;16.346;2023-03-23T11:58:21;2.30;;;2.08;;
19191;SDS011;9728;48.194;16.346;2023-03-23T12:03:25;3.22;;;2.45;;
19191;SDS011;9728;48.194;16.346;2023-03-23T12:08:55;2.60;;;2.20;;
19191;SDS011;9728;48.194;16.346;2023-03-23T12:14:10;3.38;;;2.50;;
19191;SDS011;9728;48.194;16.346;2023-03-23T12:19:19;4.90;;;2.33;;
19191;SDS011;9728;48.194;16.346;2023-03-23T12:24:38;3.47;;;2.70;;
19191;SDS011;9728;48.194;16.346;2023-03-23T12:29:53;5.97;;;2.30;;
19191;SDS011;9728;48.194;16.346;2023-03-23T12:35:11;3.22;;;2.25;;
19191;SDS011;9728;48.194;16.346;2023-03-23T12:40:35;5.18;;;2.40;;
19191;SDS011;9728;48.194;16.346;2023-03-23T12:45:48;3.10;;;2.40;;
19191;SDS011;9728;48.194;16.346;2023-03-23T12:51:09;3.80;;;2.42;;
19191;SDS011;9728;48.194;16.346;2023-03-23T12:56:22;5.18;;;2.20;;
19191;SDS011;9728;48.194;16.346;2023-03-23T13:01:30;2.92;;;2.40;;
19191;SDS011;9728;48.194;16.346;2023-03-23T13:06:37;4.13;;;2.40;;
19191;SDS011;9728;48.194;16.346;2023-03-23T13:11:43;2.75;;;2.00;;
19191;SDS011;9728;48.194;16.346;2023-03-23T13:22:09;2.78;;;2.30;;
19191;SDS011;9728;48.194;16.346;2023-03-23T13:27:16;2.92;;;2.30;;
19191;SDS011;9728;48.194;16.346;2023-03-23T13:32:19;3.00;;;2.20;;
19191;SDS011;9728;48.194;16.346;2023-03-23T13:37:22;2.05;;;1.85;;
19191;SDS011;9728;48.194;16.346;2023-03-23T13:42:29;2.10;;;1.90;;
19191;SDS011;9728;48.194;16.346;2023-03-23T13:47:37;2.92;;;2.03;;
19191;SDS011;9728;48.194;16.346;2023-03-23T13:52:46;2.20;;;2.00;;
19191;SDS011;9728;48.194;16.346;2023-03-23T13:57:56;1.98;;;1.77;;
19191;SDS011;9728;48.194;16.346;2023-03-23T14:03:00;2.22;;;1.88;;
19191;SDS011;9728;48.194;16.346;2023-03-23T14:08:10;3.55;;;2.15;;
19191;SDS011;9728;48.194;16.346;2023-03-23T14:13:18;2.10;;;1.80;;
19191;SDS011;9728;48.194;16.346;2023-03-23T14:18:23;2.33;;;2.13;;
19191;SDS011;9728;48.194;16.346;2023-03-23T14:23:31;1.90;;;1.60;;
19191;SDS011;9728;48.194;16.346;2023-03-23T14:28:40;3.47;;;1.70;;
19191;SDS011;9728;48.194;16.346;2023-03-23T14:33:43;1.95;;;1.80;;
19191;SDS011;9728;48.194;16.346;2023-03-23T14:38:46;2.25;;;1.67;;
19191;SDS011;9728;48.194;16.346;2023-03-23T14:43:50;3.58;;;1.60;;
19191;SDS011;9728;48.194;16.346;2023-03-23T14:48:52;2.78;;;1.60;;
19191;SDS011;9728;48.194;16.346;2023-03-23T14:53:55;2.28;;;1.77;;
19191;SDS011;9728;48.194;16.346;2023-03-23T14:59:02;2.20;;;1.60;;
19191;SDS011;9728;48.194;16.346;2023-03-23T15:04:08;1.65;;;1.20;;
19191;SDS011;9728;48.194;16.346;2023-03-23T15:09:13;1.40;;;1.30;;
19191;SDS011;9728;48.194;16.346;2023-03-23T15:14:20;3.00;;;1.52;;
19191;SDS011;9728;48.194;16.346;2023-03-23T15:19:25;1.73;;;1.42;;
19191;SDS011;9728;48.194;16.346;2023-03-23T15:24:31;2.33;;;1.40;;
19191;SDS011;9728;48.194;16.346;2023-03-23T15:29:45;1.98;;;1.60;;
19191;SDS011;9728;48.194;16.346;2023-03-23T15:34:48;3.35;;;1.80;;
19191;SDS011;9728;48.194;16.346;2023-03-23T15:39:51;2.97;;;1.60;;
19191;SDS011;9728;48.194;16.346;2023-03-23T15:45:02;1.40;;;1.30;;
19191;SDS011;9728;48.194;16.346;2023-03-23T15:50:18;1.80;;;1.70;;
19191;SDS011;9728;48.194;16.346;2023-03-23T15:55:23;2.03;;;1.85;;
19191;SDS011;9728;48.194;16.346;2023-03-23T16:00:28;2.92;;;2.03;;
19191;SDS011;9728;48.194;16.346;2023-03-23T16:05:32;1.92;;;1.83;;
19191;SDS011;9728;48.194;16.346;2023-03-23T16:10:36;2.75;;;2.05;;
19191;SDS011;9728;48.194;16.346;2023-03-23T16:15:45;3.40;;;2.00;;
19191;SDS011;9728;48.194;16.346;2023-03-23T16:20:49;2.53;;;2.15;;
19191;SDS011;9728;48.194;16.346;2023-03-23T16:25:52;3.42;;;2.30;;
19191;SDS011;9728;48.194;16.346;2023-03-23T16:30:57;4.88;;;2.13;;
19191;SDS011;9728;48.194;16.346;2023-03-23T16:36:01;3.08;;;2.28;;
19191;SDS011;9728;48.194;16.346;2023-03-23T16:41:05;3.28;;;1.95;;
19191;SDS011;9728;48.194;16.346;2023-03-23T16:46:10;2.25;;;2.05;;
19191;SDS011;9728;48.194;16.346;2023-03-23T16:51:18;4.63;;;2.28;;
19191;SDS011;9728;48.194;16.346;2023-03-23T16:56:21;4.20;;;2.72;;
19191;SDS011;9728;48.194;16.346;2023-03-23T17:01:26;5.70;;;2.63;;
19191;SDS011;9728;48.194;16.346;2023-03-23T17:06:30;4.57;;;2.90;;
19191;SDS011;9728;48.194;16.346;2023-03-23T17:11:33;3.40;;;2.55;;
19191;SDS011;9728;48.194;16.346;2023-03-23T17:16:38;4.75;;;2.50;;
19191;SDS011;9728;48.194;16.346;2023-03-23T17:21:41;4.68;;;3.05;;
19191;SDS011;9728;48.194;16.346;2023-03-23T17:26:45;4.15;;;2.80;;
19191;SDS011;9728;48.194;16.346;2023-03-23T17:31:51;4.53;;;3.22;;
19191;SDS011;9728;48.194;16.346;2023-03-23T17:36:55;4.88;;;3.83;;
19191;SDS011;9728;48.194;16.346;2023-03-23T17:42:00;5.80;;;3.65;;
19191;SDS011;9728;48.194;16.346;2023-03-23T17:47:06;6.32;;;4.10;;
19191;SDS011;9728;48.194;16.346;2023-03-23T17:52:12;6.03;;;3.85;;
19191;SDS011;9728;48.194;16.346;2023-03-23T17:57:17;10.60;;;4.82;;
19191;SDS011;9728;48.194;16.346;2023-03-23T18:02:22;6.40;;;4.18;;
19191;SDS011;9728;48.194;16.346;2023-03-23T18:07:29;5.63;;;3.47;;
19191;SDS011;9728;48.194;16.346;2023-03-23T18:12:33;7.07;;;4.00;;
19191;SDS011;9728;48.194;16.346;2023-03-23T18:17:39;6.93;;;3.42;;
19191;SDS011;9728;48.194;16.346;2023-03-23T18:22:46;5.47;;;3.72;;
19191;SDS011;9728;48.194;16.346;2023-03-23T18:27:52;5.00;;;3.90;;
19191;SDS011;9728;48.194;16.346;2023-03-23T18:33:07;5.07;;;3.30;;
19191;SDS011;9728;48.194;16.346;2023-03-23T18:38:12;7.55;;;3.92;;
19191;SDS011;9728;48.194;16.346;2023-03-23T18:43:21;6.68;;;3.97;;
19191;SDS011;9728;48.194;16.346;2023-03-23T18:48:27;7.10;;;4.20;;
19191;SDS011;9728;48.194;16.346;2023-03-23T18:53:34;6.03;;;4.03;;
19191;SDS011;9728;48.194;16.346;2023-03-23T18:58:39;9.60;;;5.45;;
19191;SDS011;9728;48.194;16.346;2023-03-23T19:03:46;8.60;;;4.75;;
19191;SDS011;9728;48.194;16.346;2023-03-23T19:08:52;5.63;;;4.20;;
19191;SDS011;9728;48.194;16.346;2023-03-23T19:13:58;6.90;;;4.70;;
19191;SDS011;9728;48.194;16.346;2023-03-23T19:19:06;8.82;;;5.53;;
19191;SDS011;9728;48.194;16.346;2023-03-23T19:24:12;9.40;;;6.43;;
19191;SDS011;9728;48.194;16.346;2023-03-23T19:29:18;9.13;;;5.75;;
19191;SDS011;9728;48.194;16.346;2023-03-23T19:34:27;8.20;;;5.45;;
19191;SDS011;9728;48.194;16.346;2023-03-23T19:39:38;8.20;;;5.65;;
19191;SDS011;9728;48.194;16.346;2023-03-23T19:44:45;7.93;;;5.25;;
19191;SDS011;9728;48.194;16.346;2023-03-23T19:49:54;8.98;;;5.28;;
19191;SDS011;9728;48.194;16.346;2023-03-23T19:55:02;8.38;;;5.43;;
19191;SDS011;9728;48.194;16.346;2023-03-23T20:00:08;8.57;;;5.50;;
19191;SDS011;9728;48.194;16.346;2023-03-23T20:05:18;8.98;;;5.53;;
19191;SDS011;9728;48.194;16.346;2023-03-23T20:10:24;7.47;;;5.00;;
19191;SDS011;9728;48.194;16.346;2023-03-23T20:15:31;7.82;;;5.32;;
19191;SDS011;9728;48.194;16.346;2023-03-23T20:20:41;10.15;;;5.65;;
19191;SDS011;9728;48.194;16.346;2023-03-23T20:25:46;8.85;;;5.00;;
19191;SDS011;9728;48.194;16.346;2023-03-23T20:30:59;7.38;;;4.93;;
19191;SDS011;9728;48.194;16.346;2023-03-23T20:36:24;8.77;;;5.85;;
19191;SDS011;9728;48.194;16.346;2023-03-23T20:41:31;15.32;;;6.18;;
19191;SDS011;9728;48.194;16.346;2023-03-23T20:46:40;7.93;;;5.45;;
19191;SDS011;9728;48.194;16.346;2023-03-23T20:51:51;7.75;;;5.03;;
19191;SDS011;9728;48.194;16.346;2023-03-23T20:56:56;7.15;;;4.50;;
19191;SDS011;9728;48.194;16.346;2023-03-23T21:02:01;7.90;;;4.75;;
19191;SDS011;9728;48.194;16.346;2023-03-23T21:07:08;6.65;;;4.38;;
19191;SDS011;9728;48.194;16.346;2023-03-23T21:12:17;8.45;;;5.35;;
19191;SDS011;9728;48.194;16.346;2023-03-23T21:17:21;8.30;;;4.25;;
19191;SDS011;9728;48.194;16.346;2023-03-23T21:22:28;8.88;;;4.25;;
19191;SDS011;9728;48.194;16.346;2023-03-23T21:27:33;6.45;;;4.13;;
19191;SDS011;9728;48.194;16.346;2023-03-23T21:32:37;7.20;;;4.57;;
19191;SDS011;9728;48.194;16.346;2023-03-23T21:37:43;9.55;;;4.57;;
19191;SDS011;9728;48.194;16.346;2023-03-23T21:42:49;7.20;;;4.45;;
19191;SDS011;9728;48.194;16.346;2023-03-23T21:47:53;6.15;;;4.32;;
19191;SDS011;9728;48.194;16.346;2023-03-23T21:52:59;6.03;;;4.38;;
19191;SDS011;9728;48.194;16.346;2023-03-23T21:58:03;5.75;;;3.90;;
19191;SDS011;9728;48.194;16.346;2023-03-23T22:03:08;6.50;;;4.80;;
19191;SDS011;9728;48.194;16.346;2023-03-23T22:08:13;6.45;;;4.40;;
19191;SDS011;9728;48.194;16.346;2023-03-23T22:13:17;6.32;;;3.88;;
19191;SDS011;9728;48.194;16.346;2023-03-23T22:18:21;8.88;;;4.32;;
19191;SDS011;9728;48.194;16.346;2023-03-23T22:23:25;6.97;;;4.38;;
19191;SDS011;9728;48.194;16.346;2023-03-23T22:28:29;6.90;;;4.30;;
19191;SDS011;9728;48.194;16.346;2023-03-23T22:33:34;6.30;;;4.13;;
19191;SDS011;9728;48.194;16.346;2023-03-23T22:38:41;5.90;;;4.00;;
19191;SDS011;9728;48.194;16.346;2023-03-23T22:43:46;6.30;;;4.20;;
19191;SDS011;9728;48.194;16.346;2023-03-23T22:48:49;4.70;;;3.90;;
19191;SDS011;9728;48.194;16.346;2023-03-23T22:53:54;6.00;;;4.18;;
19191;SDS011;9728;48.194;16.346;2023-03-23T22:58:58;6.68;;;4.07;;
19191;SDS011;9728;48.194;16.346;2023-03-23T23:04:02;6.70;;;4.35;;
19191;SDS011;9728;48.194;16.346;2023-03-23T23:09:08;5.10;;;3.90;;
19191;SDS011;9728;48.194;16.346;2023-03-23T23:14:11;7.05;;;4.50;;
19191;SDS011;9728;48.194;16.346;2023-03-23T23:19:15;8.07;;;4.38;;
19191;SDS011;9728;48.194;16.346;2023-03-23T23:24:20;5.55;;;4.50;;
19191;SDS011;9728;48.194;16.346;2023-03-23T23:29:23;5.45;;;3.97;;
19191;SDS011;9728;48.194;16.346;2023-03-23T23:34:27;7.65;;;4.43;;
19191;SDS011;9728;48.194;16.346;2023-03-23T23:39:32;7.57;;;4.18;;
19191;SDS011;9728;48.194;16.346;2023-03-23T23:44:38;5.45;;;4.00;;
19191;SDS011;9728;48.194;16.346;2023-03-23T23:49:43;6.78;;;4.60;;
19191;SDS011;9728;48.194;16.346;2023-03-23T23:54:48;8.88;;;5.13;;
19191;SDS011;9728;48.194;16.346;2023-03-23T23:59:53;6.55;;;4.65;;
